sensor_id;sensor_type;location;lat;lon;timestamp;pressure;altitude;pressure_sealevel;temperature;humidity
65054;BME280;51639;47.828;35.038;2023-03-23T00:04:43;100328.78;;;11.89;100.00
65054;BME280;51639;47.828;35.038;2023-03-23T00:19:43;100330.03;;;11.65;100.00
65054;BME280;51639;47.828;35.038;2023-03-23T00:34:51;100326.34;;;11.36;100.00
65054;BME280;51639;47.828;35.038;2023-03-23T00:49:52;100317.31;;;10.99;100.00
65054;BME280;51639;47.828;35.038;2023-03-23T01:04:56;100313.03;;;11.21;100.00
65054;BME280;51639;47.828;35.038;2023-03-23T01:19:57;100310.72;;;11.40;100.00
65054;BME280;51639;47.828;35.038;2023-03-23T01:34:57;100303.88;;;11.12;100.00
65054;BME280;51639;47.828;35.038;2023-03-23T01:49:58;100312.25;;;11.01;100.00
65054;BME280;51639;47.828;35.038;2023-03-23T02:05:02;100325.38;;;10.83;100.00
65054;BME280;51639;47.828;35.038;2023-03-23T02:20:29;100314.75;;;10.69;100.00
65054;BME280;51639;47.828;35.038;2023-03-23T02:35:53;100325.59;;;10.45;100.00
65054;BME280;51639;47.828;35.038;2023-03-23T02:50:55;100328.72;;;10.44;100.00
65054;BME280;51639;47.828;35.038;2023-03-23T03:21:50;100331.56;;;10.37;100.00
65054;BME280;51639;47.828;35.038;2023-03-23T03:36:54;100323.25;;;10.71;100.00
65054;BME280;51639;47.828;35.038;2023-03-23T03:51:55;100327.69;;;10.84;100.00
65054;BME280;51639;47.828;35.038;2023-03-23T04:06:56;100325.44;;;10.79;100.00
65054;BME280;51639;47.828;35.038;2023-03-23T04:21:58;100334.03;;;10.74;100.00
65054;BME280;51639;47.828;35.038;2023-03-23T04:36:59;100351.09;;;10.75;100.00
65054;BME280;51639;47.828;35.038;2023-03-23T04:52:00;100349.94;;;10.76;100.00
65054;BME280;51639;47.828;35.038;2023-03-23T05:07:00;100367.16;;;10.89;100.00
65054;BME280;51639;47.828;35.038;2023-03-23T05:22:02;100378.69;;;10.97;100.00
65054;BME280;51639;47.828;35.038;2023-03-23T05:37:03;100367.03;;;11.19;100.00
65054;BME280;51639;47.828;35.038;2023-03-23T05:52:04;100373.81;;;11.51;100.00
65054;BME280;51639;47.828;35.038;2023-03-23T06:07:05;100386.06;;;12.71;100.00
65054;BME280;51639;47.828;35.038;2023-03-23T06:22:06;100394.09;;;14.35;100.00
65054;BME280;51639;47.828;35.038;2023-03-23T06:37:07;100390.03;;;14.78;100.00
65054;BME280;51639;47.828;35.038;2023-03-23T06:52:07;100404.72;;;15.96;100.00
65054;BME280;51639;47.828;35.038;2023-03-23T07:07:09;100396.00;;;17.00;100.00
65054;BME280;51639;47.828;35.038;2023-03-23T07:22:12;100395.66;;;18.40;87.36
65054;BME280;51639;47.828;35.038;2023-03-23T07:37:13;100395.13;;;19.47;77.36
65054;BME280;51639;47.828;35.038;2023-03-23T07:52:14;100390.97;;;20.54;70.52
65054;BME280;51639;47.828;35.038;2023-03-23T08:07:15;100391.09;;;21.98;60.68
65054;BME280;51639;47.828;35.038;2023-03-23T08:22:18;100396.41;;;21.70;57.80
65054;BME280;51639;47.828;35.038;2023-03-23T08:37:19;100380.78;;;22.25;54.59
65054;BME280;51639;47.828;35.038;2023-03-23T08:52:20;100368.34;;;23.98;46.80
65054;BME280;51639;47.828;35.038;2023-03-23T09:07:22;100360.47;;;24.53;45.00
65054;BME280;51639;47.828;35.038;2023-03-23T09:22:23;100346.63;;;24.13;44.38
65054;BME280;51639;47.828;35.038;2023-03-23T09:37:24;100338.63;;;24.96;42.78
65054;BME280;51639;47.828;35.038;2023-03-23T10:07:43;100327.53;;;26.02;39.92
65054;BME280;51639;47.828;35.038;2023-03-23T10:38:19;100291.78;;;25.22;38.79
65054;BME280;51639;47.828;35.038;2023-03-23T10:53:34;100279.16;;;23.83;41.25
65054;BME280;51639;47.828;35.038;2023-03-23T11:08:46;100270.81;;;23.38;42.61
65054;BME280;51639;47.828;35.038;2023-03-23T11:23:52;100251.66;;;23.52;42.26
65054;BME280;51639;47.828;35.038;2023-03-23T11:38:54;100234.00;;;23.04;42.80
65054;BME280;51639;47.828;35.038;2023-03-23T12:09:24;100220.47;;;21.56;46.03
65054;BME280;51639;47.828;35.038;2023-03-23T12:54:42;100199.41;;;20.75;49.34
65054;BME280;51639;47.828;35.038;2023-03-23T13:09:58;100191.66;;;20.80;48.27
65054;BME280;51639;47.828;35.038;2023-03-23T13:25:07;100179.66;;;20.83;48.29
65054;BME280;51639;47.828;35.038;2023-03-23T14:10:17;100166.28;;;20.29;54.36
65054;BME280;51639;47.828;35.038;2023-03-23T14:25:19;100160.84;;;20.15;58.30
65054;BME280;51639;47.828;35.038;2023-03-23T14:40:21;100166.22;;;20.03;57.48
65054;BME280;51639;47.828;35.038;2023-03-23T14:55:22;100167.59;;;19.93;59.33
65054;BME280;51639;47.828;35.038;2023-03-23T15:10:23;100184.88;;;19.94;58.82
65054;BME280;51639;47.828;35.038;2023-03-23T15:25:32;100185.88;;;19.76;57.72
65054;BME280;51639;47.828;35.038;2023-03-23T15:40:37;100190.66;;;19.61;59.57
65054;BME280;51639;47.828;35.038;2023-03-23T15:55:39;100191.50;;;19.37;60.66
65054;BME280;51639;47.828;35.038;2023-03-23T16:10:40;100192.78;;;19.22;62.39
65054;BME280;51639;47.828;35.038;2023-03-23T16:25:44;100197.53;;;19.06;61.15
65054;BME280;51639;47.828;35.038;2023-03-23T16:40:46;100207.66;;;18.86;63.72
65054;BME280;51639;47.828;35.038;2023-03-23T16:55:50;100221.09;;;18.45;66.64
65054;BME280;51639;47.828;35.038;2023-03-23T17:10:52;100227.25;;;17.83;79.91
65054;BME280;51639;47.828;35.038;2023-03-23T17:25:55;100235.63;;;17.47;80.29
65054;BME280;51639;47.828;35.038;2023-03-23T17:40:58;100246.97;;;17.21;85.41
65054;BME280;51639;47.828;35.038;2023-03-23T17:56:01;100251.22;;;17.13;89.58
65054;BME280;51639;47.828;35.038;2023-03-23T18:11:22;100250.00;;;17.14;93.46
65054;BME280;51639;47.828;35.038;2023-03-23T18:26:26;100266.00;;;17.16;93.70
65054;BME280;51639;47.828;35.038;2023-03-23T18:41:28;100260.97;;;17.14;96.03
65054;BME280;51639;47.828;35.038;2023-03-23T18:56:30;100258.38;;;17.20;95.58
65054;BME280;51639;47.828;35.038;2023-03-23T19:11:32;100254.56;;;17.17;95.08
65054;BME280;51639;47.828;35.038;2023-03-23T19:26:39;100246.31;;;17.26;93.04
65054;BME280;51639;47.828;35.038;2023-03-23T19:41:42;100246.31;;;17.26;91.42
65054;BME280;51639;47.828;35.038;2023-03-23T19:56:46;100250.72;;;17.33;90.93
65054;BME280;51639;47.828;35.038;2023-03-23T20:11:48;100237.22;;;17.20;89.94
65054;BME280;51639;47.828;35.038;2023-03-23T20:26:50;100247.25;;;17.23;92.76
65054;BME280;51639;47.828;35.038;2023-03-23T20:41:53;100230.19;;;17.19;92.90
65054;BME280;51639;47.828;35.038;2023-03-23T20:56:55;100232.94;;;17.01;93.20
65054;BME280;51639;47.828;35.038;2023-03-23T21:11:59;100234.19;;;16.63;96.40
65054;BME280;51639;47.828;35.038;2023-03-23T21:27:01;100232.00;;;16.31;99.96
65054;BME280;51639;47.828;35.038;2023-03-23T21:42:12;100224.03;;;16.06;100.00
65054;BME280;51639;47.828;35.038;2023-03-23T21:57:14;100220.78;;;15.89;100.00
65054;BME280;51639;47.828;35.038;2023-03-23T22:12:16;100222.59;;;15.52;100.00
65054;BME280;51639;47.828;35.038;2023-03-23T22:27:19;100218.28;;;15.42;100.00
65054;BME280;51639;47.828;35.038;2023-03-23T22:42:21;100220.53;;;15.12;100.00
65054;BME280;51639;47.828;35.038;2023-03-23T22:57:23;100205.03;;;15.09;100.00
65054;BME280;51639;47.828;35.038;2023-03-23T23:12:27;100211.91;;;14.92;100.00
65054;BME280;51639;47.828;35.038;2023-03-23T23:27:32;100228.94;;;14.74;100.00
65054;BME280;51639;47.828;35.038;2023-03-23T23:42:35;100207.44;;;14.63;100.00
65054;BME280;51639;47.828;35.038;2023-03-23T23:57:37;100200.47;;;14.62;100.00
